sensor_id;sensor_type;location;lat;lon;timestamp;P1;durP1;ratioP1;P2;durP2;ratioP2
4053;SDS011;2042;47.956;9.222;2022-09-09T00:04:40;4.93;;;2.27;;
4053;SDS011;2042;47.956;9.222;2022-09-09T00:07:13;3.90;;;2.23;;
4053;SDS011;2042;47.956;9.222;2022-09-09T00:10:03;1.63;;;1.53;;
4053;SDS011;2042;47.956;9.222;2022-09-09T00:19:06;6.40;;;2.07;;
4053;SDS011;2042;47.956;9.222;2022-09-09T00:21:41;1.60;;;1.50;;
4053;SDS011;2042;47.956;9.222;2022-09-09T00:26:53;1.97;;;1.57;;
4053;SDS011;2042;47.956;9.222;2022-09-09T00:32:13;2.63;;;2.00;;
4053;SDS011;2042;47.956;9.222;2022-09-09T00:34:48;2.00;;;1.70;;
4053;SDS011;2042;47.956;9.222;2022-09-09T00:37:24;5.20;;;1.70;;
4053;SDS011;2042;47.956;9.222;2022-09-09T00:39:51;3.30;;;1.43;;
4053;SDS011;2042;47.956;9.222;2022-09-09T00:42:25;4.57;;;1.83;;
4053;SDS011;2042;47.956;9.222;2022-09-09T00:45:02;3.10;;;1.53;;
4053;SDS011;2042;47.956;9.222;2022-09-09T00:47:51;3.80;;;1.97;;
4053;SDS011;2042;47.956;9.222;2022-09-09T00:58:27;3.00;;;1.93;;
4053;SDS011;2042;47.956;9.222;2022-09-09T01:00:57;4.30;;;2.30;;
4053;SDS011;2042;47.956;9.222;2022-09-09T01:03:44;3.43;;;1.90;;
4053;SDS011;2042;47.956;9.222;2022-09-09T01:09:07;3.67;;;2.10;;
4053;SDS011;2042;47.956;9.222;2022-09-09T01:17:05;6.60;;;1.70;;
4053;SDS011;2042;47.956;9.222;2022-09-09T01:25:18;2.70;;;2.00;;
4053;SDS011;2042;47.956;9.222;2022-09-09T01:28:05;3.07;;;1.93;;
4053;SDS011;2042;47.956;9.222;2022-09-09T01:30:37;2.80;;;1.97;;
4053;SDS011;2042;47.956;9.222;2022-09-09T01:33:04;2.93;;;2.20;;
4053;SDS011;2042;47.956;9.222;2022-09-09T01:38:11;2.60;;;2.00;;
4053;SDS011;2042;47.956;9.222;2022-09-09T01:40:37;3.00;;;2.20;;
4053;SDS011;2042;47.956;9.222;2022-09-09T01:43:04;2.63;;;2.10;;
4053;SDS011;2042;47.956;9.222;2022-09-09T01:45:30;4.57;;;2.00;;
4053;SDS011;2042;47.956;9.222;2022-09-09T01:47:56;3.50;;;1.90;;
4053;SDS011;2042;47.956;9.222;2022-09-09T01:50:22;5.43;;;3.40;;
4053;SDS011;2042;47.956;9.222;2022-09-09T01:52:49;3.97;;;2.40;;
4053;SDS011;2042;47.956;9.222;2022-09-09T01:55:19;2.57;;;2.07;;
4053;SDS011;2042;47.956;9.222;2022-09-09T02:00:51;3.83;;;1.90;;
4053;SDS011;2042;47.956;9.222;2022-09-09T02:03:35;4.00;;;3.60;;
4053;SDS011;2042;47.956;9.222;2022-09-09T02:06:07;4.87;;;2.30;;
4053;SDS011;2042;47.956;9.222;2022-09-09T02:08:45;7.50;;;2.30;;
4053;SDS011;2042;47.956;9.222;2022-09-09T02:11:18;3.10;;;1.73;;
4053;SDS011;2042;47.956;9.222;2022-09-09T02:13:45;3.43;;;2.00;;
4053;SDS011;2042;47.956;9.222;2022-09-09T02:21:33;2.87;;;2.00;;
4053;SDS011;2042;47.956;9.222;2022-09-09T02:24:00;11.97;;;2.20;;
4053;SDS011;2042;47.956;9.222;2022-09-09T02:26:29;3.20;;;1.90;;
4053;SDS011;2042;47.956;9.222;2022-09-09T02:28:59;7.97;;;2.40;;
4053;SDS011;2042;47.956;9.222;2022-09-09T02:31:28;3.53;;;2.30;;
4053;SDS011;2042;47.956;9.222;2022-09-09T02:33:55;3.67;;;2.47;;
4053;SDS011;2042;47.956;9.222;2022-09-09T02:36:28;4.70;;;2.73;;
4053;SDS011;2042;47.956;9.222;2022-09-09T02:38:58;4.03;;;2.20;;
4053;SDS011;2042;47.956;9.222;2022-09-09T02:41:32;5.30;;;2.40;;
4053;SDS011;2042;47.956;9.222;2022-09-09T02:44:00;5.53;;;2.43;;
4053;SDS011;2042;47.956;9.222;2022-09-09T02:46:45;3.10;;;2.67;;
4053;SDS011;2042;47.956;9.222;2022-09-09T02:51:51;6.37;;;2.17;;
4053;SDS011;2042;47.956;9.222;2022-09-09T02:54:33;6.67;;;2.10;;
4053;SDS011;2042;47.956;9.222;2022-09-09T02:57:06;4.17;;;2.33;;
4053;SDS011;2042;47.956;9.222;2022-09-09T02:59:33;5.73;;;2.20;;
4053;SDS011;2042;47.956;9.222;2022-09-09T03:01:59;2.93;;;2.30;;
4053;SDS011;2042;47.956;9.222;2022-09-09T03:04:26;2.87;;;1.80;;
4053;SDS011;2042;47.956;9.222;2022-09-09T03:06:52;5.93;;;2.30;;
4053;SDS011;2042;47.956;9.222;2022-09-09T03:09:18;3.20;;;2.40;;
4053;SDS011;2042;47.956;9.222;2022-09-09T03:11:44;2.60;;;2.00;;
4053;SDS011;2042;47.956;9.222;2022-09-09T03:14:10;5.10;;;4.10;;
4053;SDS011;2042;47.956;9.222;2022-09-09T03:16:36;5.33;;;2.40;;
4053;SDS011;2042;47.956;9.222;2022-09-09T03:19:02;2.40;;;2.20;;
4053;SDS011;2042;47.956;9.222;2022-09-09T03:21:28;4.67;;;2.30;;
4053;SDS011;2042;47.956;9.222;2022-09-09T03:23:54;5.30;;;2.23;;
4053;SDS011;2042;47.956;9.222;2022-09-09T03:26:22;3.40;;;2.13;;
4053;SDS011;2042;47.956;9.222;2022-09-09T03:28:48;3.23;;;2.43;;
4053;SDS011;2042;47.956;9.222;2022-09-09T03:31:16;4.80;;;2.57;;
4053;SDS011;2042;47.956;9.222;2022-09-09T03:33:44;4.13;;;2.43;;
4053;SDS011;2042;47.956;9.222;2022-09-09T03:36:10;2.93;;;2.37;;
4053;SDS011;2042;47.956;9.222;2022-09-09T03:38:36;4.80;;;2.03;;
4053;SDS011;2042;47.956;9.222;2022-09-09T03:41:02;6.40;;;2.20;;
4053;SDS011;2042;47.956;9.222;2022-09-09T03:43:28;6.40;;;2.13;;
4053;SDS011;2042;47.956;9.222;2022-09-09T03:45:55;3.07;;;1.83;;
4053;SDS011;2042;47.956;9.222;2022-09-09T03:48:24;5.13;;;2.50;;
4053;SDS011;2042;47.956;9.222;2022-09-09T03:50:51;8.40;;;2.60;;
4053;SDS011;2042;47.956;9.222;2022-09-09T03:53:19;2.93;;;2.23;;
4053;SDS011;2042;47.956;9.222;2022-09-09T03:55:49;3.90;;;1.93;;
4053;SDS011;2042;47.956;9.222;2022-09-09T03:58:17;3.63;;;2.13;;
4053;SDS011;2042;47.956;9.222;2022-09-09T04:00:44;2.40;;;2.10;;
4053;SDS011;2042;47.956;9.222;2022-09-09T04:03:18;3.57;;;2.80;;
4053;SDS011;2042;47.956;9.222;2022-09-09T04:05:44;3.97;;;2.33;;
4053;SDS011;2042;47.956;9.222;2022-09-09T04:08:10;4.97;;;2.50;;
4053;SDS011;2042;47.956;9.222;2022-09-09T04:10:36;3.87;;;3.47;;
4053;SDS011;2042;47.956;9.222;2022-09-09T04:13:03;5.97;;;3.57;;
4053;SDS011;2042;47.956;9.222;2022-09-09T04:15:29;5.03;;;4.00;;
4053;SDS011;2042;47.956;9.222;2022-09-09T04:17:55;8.93;;;3.77;;
4053;SDS011;2042;47.956;9.222;2022-09-09T04:20:21;7.07;;;4.47;;
4053;SDS011;2042;47.956;9.222;2022-09-09T04:22:47;7.50;;;4.50;;
4053;SDS011;2042;47.956;9.222;2022-09-09T04:25:13;7.43;;;4.50;;
4053;SDS011;2042;47.956;9.222;2022-09-09T04:27:40;14.50;;;5.23;;
4053;SDS011;2042;47.956;9.222;2022-09-09T04:30:06;5.77;;;3.87;;
4053;SDS011;2042;47.956;9.222;2022-09-09T04:32:33;12.90;;;4.80;;
4053;SDS011;2042;47.956;9.222;2022-09-09T04:34:59;4.00;;;3.60;;
4053;SDS011;2042;47.956;9.222;2022-09-09T04:37:25;12.37;;;5.10;;
4053;SDS011;2042;47.956;9.222;2022-09-09T04:39:51;4.10;;;3.70;;
4053;SDS011;2042;47.956;9.222;2022-09-09T04:42:17;5.77;;;4.43;;
4053;SDS011;2042;47.956;9.222;2022-09-09T04:44:44;3.77;;;3.40;;
4053;SDS011;2042;47.956;9.222;2022-09-09T04:47:10;3.97;;;3.40;;
4053;SDS011;2042;47.956;9.222;2022-09-09T04:49:36;10.10;;;3.87;;
4053;SDS011;2042;47.956;9.222;2022-09-09T04:52:03;8.40;;;4.00;;
4053;SDS011;2042;47.956;9.222;2022-09-09T04:54:29;4.70;;;3.30;;
4053;SDS011;2042;47.956;9.222;2022-09-09T04:56:55;5.90;;;4.13;;
4053;SDS011;2042;47.956;9.222;2022-09-09T04:59:22;5.90;;;4.20;;
4053;SDS011;2042;47.956;9.222;2022-09-09T05:01:48;9.67;;;4.00;;
4053;SDS011;2042;47.956;9.222;2022-09-09T05:04:15;6.67;;;3.17;;
4053;SDS011;2042;47.956;9.222;2022-09-09T05:06:41;5.40;;;3.10;;
4053;SDS011;2042;47.956;9.222;2022-09-09T05:09:07;3.67;;;3.27;;
4053;SDS011;2042;47.956;9.222;2022-09-09T05:11:33;15.07;;;4.00;;
4053;SDS011;2042;47.956;9.222;2022-09-09T05:14:03;4.60;;;3.80;;
4053;SDS011;2042;47.956;9.222;2022-09-09T05:16:29;5.07;;;3.40;;
4053;SDS011;2042;47.956;9.222;2022-09-09T05:18:55;7.37;;;3.73;;
4053;SDS011;2042;47.956;9.222;2022-09-09T05:21:22;5.60;;;3.77;;
4053;SDS011;2042;47.956;9.222;2022-09-09T05:23:50;9.87;;;3.63;;
4053;SDS011;2042;47.956;9.222;2022-09-09T05:26:16;3.30;;;2.90;;
4053;SDS011;2042;47.956;9.222;2022-09-09T05:28:43;8.03;;;3.20;;
4053;SDS011;2042;47.956;9.222;2022-09-09T05:31:09;10.53;;;3.93;;
4053;SDS011;2042;47.956;9.222;2022-09-09T05:33:39;4.77;;;3.40;;
4053;SDS011;2042;47.956;9.222;2022-09-09T05:36:06;5.07;;;3.40;;
4053;SDS011;2042;47.956;9.222;2022-09-09T05:38:33;6.37;;;3.53;;
4053;SDS011;2042;47.956;9.222;2022-09-09T05:40:59;2.60;;;2.40;;
4053;SDS011;2042;47.956;9.222;2022-09-09T05:43:26;3.90;;;3.40;;
4053;SDS011;2042;47.956;9.222;2022-09-09T05:46:03;7.07;;;3.20;;
4053;SDS011;2042;47.956;9.222;2022-09-09T05:48:30;5.60;;;2.50;;
4053;SDS011;2042;47.956;9.222;2022-09-09T05:50:57;7.93;;;4.27;;
4053;SDS011;2042;47.956;9.222;2022-09-09T05:53:23;3.47;;;3.00;;
4053;SDS011;2042;47.956;9.222;2022-09-09T05:55:49;6.13;;;3.00;;
4053;SDS011;2042;47.956;9.222;2022-09-09T05:58:15;5.80;;;2.83;;
4053;SDS011;2042;47.956;9.222;2022-09-09T06:00:41;4.20;;;2.83;;
4053;SDS011;2042;47.956;9.222;2022-09-09T06:03:10;3.10;;;2.40;;
4053;SDS011;2042;47.956;9.222;2022-09-09T06:05:36;2.83;;;2.33;;
4053;SDS011;2042;47.956;9.222;2022-09-09T06:08:04;3.17;;;2.73;;
4053;SDS011;2042;47.956;9.222;2022-09-09T06:10:30;3.50;;;2.70;;
4053;SDS011;2042;47.956;9.222;2022-09-09T06:12:55;2.83;;;2.63;;
4053;SDS011;2042;47.956;9.222;2022-09-09T06:15:21;4.43;;;2.37;;
4053;SDS011;2042;47.956;9.222;2022-09-09T06:17:47;3.70;;;3.20;;
4053;SDS011;2042;47.956;9.222;2022-09-09T06:20:18;3.33;;;2.20;;
4053;SDS011;2042;47.956;9.222;2022-09-09T06:22:45;4.43;;;2.23;;
4053;SDS011;2042;47.956;9.222;2022-09-09T06:25:13;2.67;;;2.10;;
4053;SDS011;2042;47.956;9.222;2022-09-09T06:27:39;3.63;;;2.30;;
4053;SDS011;2042;47.956;9.222;2022-09-09T06:30:05;3.67;;;2.43;;
4053;SDS011;2042;47.956;9.222;2022-09-09T06:32:32;2.70;;;2.30;;
4053;SDS011;2042;47.956;9.222;2022-09-09T06:34:59;5.90;;;2.30;;
4053;SDS011;2042;47.956;9.222;2022-09-09T06:37:26;6.33;;;2.20;;
4053;SDS011;2042;47.956;9.222;2022-09-09T06:39:54;8.50;;;2.13;;
4053;SDS011;2042;47.956;9.222;2022-09-09T06:42:21;3.53;;;2.30;;
4053;SDS011;2042;47.956;9.222;2022-09-09T06:44:48;6.00;;;1.90;;
4053;SDS011;2042;47.956;9.222;2022-09-09T06:47:13;2.03;;;1.80;;
4053;SDS011;2042;47.956;9.222;2022-09-09T06:49:40;2.53;;;2.30;;
4053;SDS011;2042;47.956;9.222;2022-09-09T06:52:08;3.10;;;2.10;;
4053;SDS011;2042;47.956;9.222;2022-09-09T06:54:34;3.00;;;2.80;;
4053;SDS011;2042;47.956;9.222;2022-09-09T06:57:02;2.53;;;2.17;;
4053;SDS011;2042;47.956;9.222;2022-09-09T06:59:28;2.30;;;2.10;;
4053;SDS011;2042;47.956;9.222;2022-09-09T07:01:55;2.87;;;1.80;;
4053;SDS011;2042;47.956;9.222;2022-09-09T07:04:21;4.30;;;2.83;;
4053;SDS011;2042;47.956;9.222;2022-09-09T07:06:47;5.17;;;4.20;;
4053;SDS011;2042;47.956;9.222;2022-09-09T07:09:13;3.83;;;2.20;;
4053;SDS011;2042;47.956;9.222;2022-09-09T07:11:42;3.40;;;1.80;;
4053;SDS011;2042;47.956;9.222;2022-09-09T07:14:12;2.23;;;1.40;;
4053;SDS011;2042;47.956;9.222;2022-09-09T07:16:38;2.10;;;1.70;;
4053;SDS011;2042;47.956;9.222;2022-09-09T07:19:05;1.83;;;1.60;;
4053;SDS011;2042;47.956;9.222;2022-09-09T07:21:32;2.97;;;1.70;;
4053;SDS011;2042;47.956;9.222;2022-09-09T07:23:58;4.63;;;1.53;;
4053;SDS011;2042;47.956;9.222;2022-09-09T07:26:27;2.23;;;1.60;;
4053;SDS011;2042;47.956;9.222;2022-09-09T07:28:55;2.40;;;1.40;;
4053;SDS011;2042;47.956;9.222;2022-09-09T07:31:25;1.77;;;1.43;;
4053;SDS011;2042;47.956;9.222;2022-09-09T07:33:56;4.17;;;1.47;;
4053;SDS011;2042;47.956;9.222;2022-09-09T07:36:57;1.53;;;1.17;;
4053;SDS011;2042;47.956;9.222;2022-09-09T07:39:16;1.60;;;1.20;;
4053;SDS011;2042;47.956;9.222;2022-09-09T07:41:43;2.60;;;1.23;;
4053;SDS011;2042;47.956;9.222;2022-09-09T07:44:21;4.80;;;2.33;;
4053;SDS011;2042;47.956;9.222;2022-09-09T07:46:48;1.70;;;1.43;;
4053;SDS011;2042;47.956;9.222;2022-09-09T07:49:15;1.50;;;1.40;;
4053;SDS011;2042;47.956;9.222;2022-09-09T07:51:43;1.50;;;1.40;;
4053;SDS011;2042;47.956;9.222;2022-09-09T07:54:11;3.20;;;1.50;;
4053;SDS011;2042;47.956;9.222;2022-09-09T07:56:40;2.40;;;1.50;;
4053;SDS011;2042;47.956;9.222;2022-09-09T07:59:07;1.37;;;1.00;;
4053;SDS011;2042;47.956;9.222;2022-09-09T08:01:35;1.80;;;1.27;;
4053;SDS011;2042;47.956;9.222;2022-09-09T08:04:04;2.50;;;1.20;;
4053;SDS011;2042;47.956;9.222;2022-09-09T08:06:34;1.40;;;1.20;;
4053;SDS011;2042;47.956;9.222;2022-09-09T08:09:00;2.57;;;1.00;;
4053;SDS011;2042;47.956;9.222;2022-09-09T08:11:27;3.87;;;1.13;;
4053;SDS011;2042;47.956;9.222;2022-09-09T08:13:54;3.40;;;1.60;;
4053;SDS011;2042;47.956;9.222;2022-09-09T08:16:21;2.13;;;1.40;;
4053;SDS011;2042;47.956;9.222;2022-09-09T08:18:50;3.00;;;1.97;;
4053;SDS011;2042;47.956;9.222;2022-09-09T08:21:18;1.40;;;1.30;;
4053;SDS011;2042;47.956;9.222;2022-09-09T08:23:46;2.60;;;1.20;;
4053;SDS011;2042;47.956;9.222;2022-09-09T08:26:15;2.80;;;1.30;;
4053;SDS011;2042;47.956;9.222;2022-09-09T08:28:46;4.53;;;1.50;;
4053;SDS011;2042;47.956;9.222;2022-09-09T08:31:17;2.92;;;1.40;;
4053;SDS011;2042;47.956;9.222;2022-09-09T08:33:43;1.43;;;1.10;;
4053;SDS011;2042;47.956;9.222;2022-09-09T08:36:19;1.97;;;1.43;;
4053;SDS011;2042;47.956;9.222;2022-09-09T08:38:51;1.80;;;1.10;;
4053;SDS011;2042;47.956;9.222;2022-09-09T08:52:02;4.10;;;1.50;;
4053;SDS011;2042;47.956;9.222;2022-09-09T08:54:32;3.07;;;1.40;;
4053;SDS011;2042;47.956;9.222;2022-09-09T08:56:59;2.07;;;1.40;;
4053;SDS011;2042;47.956;9.222;2022-09-09T08:59:25;1.57;;;1.17;;
4053;SDS011;2042;47.956;9.222;2022-09-09T09:02:07;2.33;;;1.03;;
4053;SDS011;2042;47.956;9.222;2022-09-09T09:10:01;3.53;;;1.70;;
4053;SDS011;2042;47.956;9.222;2022-09-09T09:12:29;1.80;;;1.10;;
4053;SDS011;2042;47.956;9.222;2022-09-09T09:15:00;2.90;;;1.27;;
4053;SDS011;2042;47.956;9.222;2022-09-09T09:17:27;2.00;;;1.30;;
4053;SDS011;2042;47.956;9.222;2022-09-09T09:19:56;3.23;;;1.30;;
4053;SDS011;2042;47.956;9.222;2022-09-09T09:27:40;1.50;;;1.17;;
4053;SDS011;2042;47.956;9.222;2022-09-09T09:30:51;3.10;;;1.60;;
4053;SDS011;2042;47.956;9.222;2022-09-09T09:33:22;1.77;;;1.40;;
4053;SDS011;2042;47.956;9.222;2022-09-09T09:36:11;2.53;;;1.10;;
4053;SDS011;2042;47.956;9.222;2022-09-09T09:38:40;2.90;;;1.97;;
4053;SDS011;2042;47.956;9.222;2022-09-09T09:44:02;2.70;;;1.30;;
4053;SDS011;2042;47.956;9.222;2022-09-09T09:46:29;1.83;;;1.23;;
4053;SDS011;2042;47.956;9.222;2022-09-09T09:49:02;2.50;;;1.50;;
4053;SDS011;2042;47.956;9.222;2022-09-09T09:51:30;10.80;;;1.13;;
4053;SDS011;2042;47.956;9.222;2022-09-09T09:54:09;2.13;;;1.33;;
4053;SDS011;2042;47.956;9.222;2022-09-09T09:56:41;3.53;;;1.60;;
4053;SDS011;2042;47.956;9.222;2022-09-09T09:59:19;1.63;;;1.13;;
4053;SDS011;2042;47.956;9.222;2022-09-09T10:01:45;2.23;;;1.27;;
4053;SDS011;2042;47.956;9.222;2022-09-09T10:06:41;3.30;;;1.67;;
4053;SDS011;2042;47.956;9.222;2022-09-09T10:09:24;2.40;;;1.30;;
4053;SDS011;2042;47.956;9.222;2022-09-09T10:14:57;1.83;;;1.17;;
4053;SDS011;2042;47.956;9.222;2022-09-09T10:17:35;1.80;;;1.20;;
4053;SDS011;2042;47.956;9.222;2022-09-09T10:20:30;3.70;;;0.97;;
4053;SDS011;2042;47.956;9.222;2022-09-09T10:26:05;2.13;;;1.50;;
4053;SDS011;2042;47.956;9.222;2022-09-09T10:33:57;1.97;;;1.10;;
4053;SDS011;2042;47.956;9.222;2022-09-09T10:36:39;1.50;;;1.13;;
4053;SDS011;2042;47.956;9.222;2022-09-09T10:44:18;1.00;;;0.87;;
4053;SDS011;2042;47.956;9.222;2022-09-09T10:52:40;2.67;;;1.00;;
4053;SDS011;2042;47.956;9.222;2022-09-09T10:57:42;3.77;;;1.40;;
4053;SDS011;2042;47.956;9.222;2022-09-09T11:00:20;3.37;;;1.73;;
4053;SDS011;2042;47.956;9.222;2022-09-09T11:02:55;1.30;;;0.90;;
4053;SDS011;2042;47.956;9.222;2022-09-09T11:05:24;1.83;;;1.10;;
4053;SDS011;2042;47.956;9.222;2022-09-09T11:13:11;1.07;;;0.90;;
4053;SDS011;2042;47.956;9.222;2022-09-09T11:15:45;1.43;;;1.03;;
4053;SDS011;2042;47.956;9.222;2022-09-09T11:18:20;2.57;;;1.07;;
4053;SDS011;2042;47.956;9.222;2022-09-09T11:20:49;1.10;;;0.90;;
4053;SDS011;2042;47.956;9.222;2022-09-09T11:23:42;4.93;;;1.50;;
4053;SDS011;2042;47.956;9.222;2022-09-09T11:26:15;1.73;;;1.00;;
4053;SDS011;2042;47.956;9.222;2022-09-09T11:40:15;2.87;;;1.20;;
4053;SDS011;2042;47.956;9.222;2022-09-09T11:42:45;3.20;;;1.03;;
4053;SDS011;2042;47.956;9.222;2022-09-09T11:47:59;3.13;;;1.23;;
4053;SDS011;2042;47.956;9.222;2022-09-09T11:50:27;2.47;;;0.93;;
4053;SDS011;2042;47.956;9.222;2022-09-09T11:55:39;1.60;;;0.90;;
4053;SDS011;2042;47.956;9.222;2022-09-09T12:00:43;1.87;;;0.70;;
4053;SDS011;2042;47.956;9.222;2022-09-09T12:04:01;1.30;;;1.00;;
4053;SDS011;2042;47.956;9.222;2022-09-09T12:05:59;3.67;;;1.30;;
4053;SDS011;2042;47.956;9.222;2022-09-09T12:08:33;1.93;;;0.90;;
4053;SDS011;2042;47.956;9.222;2022-09-09T12:11:02;1.60;;;1.20;;
4053;SDS011;2042;47.956;9.222;2022-09-09T12:13:29;2.17;;;1.10;;
4053;SDS011;2042;47.956;9.222;2022-09-09T12:16:00;2.40;;;1.30;;
4053;SDS011;2042;47.956;9.222;2022-09-09T12:18:34;1.77;;;0.90;;
4053;SDS011;2042;47.956;9.222;2022-09-09T12:26:37;1.40;;;0.83;;
4053;SDS011;2042;47.956;9.222;2022-09-09T12:34:32;2.07;;;1.13;;
4053;SDS011;2042;47.956;9.222;2022-09-09T12:37:14;2.50;;;1.33;;
4053;SDS011;2042;47.956;9.222;2022-09-09T12:42:20;1.27;;;0.80;;
4053;SDS011;2042;47.956;9.222;2022-09-09T12:44:54;1.80;;;0.73;;
4053;SDS011;2042;47.956;9.222;2022-09-09T12:47:27;1.77;;;0.80;;
4053;SDS011;2042;47.956;9.222;2022-09-09T12:50:02;1.43;;;0.90;;
4053;SDS011;2042;47.956;9.222;2022-09-09T12:52:30;1.17;;;0.97;;
4053;SDS011;2042;47.956;9.222;2022-09-09T12:55:01;4.87;;;1.10;;
4053;SDS011;2042;47.956;9.222;2022-09-09T12:57:31;1.73;;;1.40;;
4053;SDS011;2042;47.956;9.222;2022-09-09T13:00:11;2.77;;;1.13;;
4053;SDS011;2042;47.956;9.222;2022-09-09T13:02:52;1.37;;;0.80;;
4053;SDS011;2042;47.956;9.222;2022-09-09T13:05:24;1.57;;;1.00;;
4053;SDS011;2042;47.956;9.222;2022-09-09T13:08:02;2.07;;;1.00;;
4053;SDS011;2042;47.956;9.222;2022-09-09T13:10:30;1.83;;;1.10;;
4053;SDS011;2042;47.956;9.222;2022-09-09T13:13:00;2.00;;;1.20;;
4053;SDS011;2042;47.956;9.222;2022-09-09T13:15:27;2.70;;;1.00;;
4053;SDS011;2042;47.956;9.222;2022-09-09T13:17:57;3.13;;;1.07;;
4053;SDS011;2042;47.956;9.222;2022-09-09T13:20:25;2.00;;;1.50;;
4053;SDS011;2042;47.956;9.222;2022-09-09T13:22:53;2.70;;;1.07;;
4053;SDS011;2042;47.956;9.222;2022-09-09T13:25:23;1.57;;;0.70;;
4053;SDS011;2042;47.956;9.222;2022-09-09T13:27:55;2.60;;;0.83;;
4053;SDS011;2042;47.956;9.222;2022-09-09T13:35:52;1.83;;;1.00;;
4053;SDS011;2042;47.956;9.222;2022-09-09T13:38:21;1.53;;;0.90;;
4053;SDS011;2042;47.956;9.222;2022-09-09T13:40:57;3.87;;;0.90;;
4053;SDS011;2042;47.956;9.222;2022-09-09T13:43:29;1.27;;;0.90;;
4053;SDS011;2042;47.956;9.222;2022-09-09T13:46:26;1.30;;;0.87;;
4053;SDS011;2042;47.956;9.222;2022-09-09T13:49:20;2.83;;;1.00;;
4053;SDS011;2042;47.956;9.222;2022-09-09T13:51:47;2.33;;;1.77;;
4053;SDS011;2042;47.956;9.222;2022-09-09T13:54:16;2.07;;;0.90;;
4053;SDS011;2042;47.956;9.222;2022-09-09T13:56:43;4.27;;;0.80;;
4053;SDS011;2042;47.956;9.222;2022-09-09T13:59:10;1.43;;;0.93;;
4053;SDS011;2042;47.956;9.222;2022-09-09T14:01:38;1.43;;;0.90;;
4053;SDS011;2042;47.956;9.222;2022-09-09T14:04:04;2.43;;;0.80;;
4053;SDS011;2042;47.956;9.222;2022-09-09T14:06:31;1.80;;;0.97;;
4053;SDS011;2042;47.956;9.222;2022-09-09T14:08:57;2.10;;;0.90;;
4053;SDS011;2042;47.956;9.222;2022-09-09T14:11:23;4.07;;;0.90;;
4053;SDS011;2042;47.956;9.222;2022-09-09T14:13:49;1.40;;;0.90;;
4053;SDS011;2042;47.956;9.222;2022-09-09T14:16:16;1.23;;;0.77;;
4053;SDS011;2042;47.956;9.222;2022-09-09T14:18:42;1.70;;;0.80;;
4053;SDS011;2042;47.956;9.222;2022-09-09T14:21:09;2.50;;;0.70;;
4053;SDS011;2042;47.956;9.222;2022-09-09T14:23:34;1.27;;;0.67;;
4053;SDS011;2042;47.956;9.222;2022-09-09T14:26:00;1.53;;;0.90;;
4053;SDS011;2042;47.956;9.222;2022-09-09T14:28:26;3.30;;;1.20;;
4053;SDS011;2042;47.956;9.222;2022-09-09T14:30:53;2.90;;;1.37;;
4053;SDS011;2042;47.956;9.222;2022-09-09T14:33:19;2.83;;;0.90;;
4053;SDS011;2042;47.956;9.222;2022-09-09T14:35:45;2.30;;;0.80;;
4053;SDS011;2042;47.956;9.222;2022-09-09T14:38:11;2.40;;;0.87;;
4053;SDS011;2042;47.956;9.222;2022-09-09T14:40:37;2.73;;;0.70;;
4053;SDS011;2042;47.956;9.222;2022-09-09T14:43:03;4.07;;;1.30;;
4053;SDS011;2042;47.956;9.222;2022-09-09T14:45:30;0.90;;;0.70;;
4053;SDS011;2042;47.956;9.222;2022-09-09T14:47:56;0.90;;;0.60;;
4053;SDS011;2042;47.956;9.222;2022-09-09T14:50:22;1.67;;;0.73;;
4053;SDS011;2042;47.956;9.222;2022-09-09T14:52:48;1.23;;;0.70;;
4053;SDS011;2042;47.956;9.222;2022-09-09T14:55:15;1.20;;;0.77;;
4053;SDS011;2042;47.956;9.222;2022-09-09T14:57:41;2.10;;;0.70;;
4053;SDS011;2042;47.956;9.222;2022-09-09T15:00:07;2.03;;;0.90;;
4053;SDS011;2042;47.956;9.222;2022-09-09T15:02:35;1.07;;;0.70;;
4053;SDS011;2042;47.956;9.222;2022-09-09T15:05:00;1.83;;;0.70;;
4053;SDS011;2042;47.956;9.222;2022-09-09T15:07:26;1.40;;;0.77;;
4053;SDS011;2042;47.956;9.222;2022-09-09T15:09:53;5.63;;;0.80;;
4053;SDS011;2042;47.956;9.222;2022-09-09T15:12:19;1.37;;;0.70;;
4053;SDS011;2042;47.956;9.222;2022-09-09T15:14:45;2.83;;;0.80;;
4053;SDS011;2042;47.956;9.222;2022-09-09T15:17:12;2.40;;;0.60;;
4053;SDS011;2042;47.956;9.222;2022-09-09T15:19:38;2.70;;;0.80;;
4053;SDS011;2042;47.956;9.222;2022-09-09T15:22:04;2.53;;;1.00;;
4053;SDS011;2042;47.956;9.222;2022-09-09T15:24:31;1.40;;;0.80;;
4053;SDS011;2042;47.956;9.222;2022-09-09T15:26:57;0.80;;;0.60;;
4053;SDS011;2042;47.956;9.222;2022-09-09T15:29:23;2.63;;;0.80;;
4053;SDS011;2042;47.956;9.222;2022-09-09T15:31:50;4.50;;;0.90;;
4053;SDS011;2042;47.956;9.222;2022-09-09T15:34:16;2.07;;;0.80;;
4053;SDS011;2042;47.956;9.222;2022-09-09T15:36:43;1.63;;;0.70;;
4053;SDS011;2042;47.956;9.222;2022-09-09T15:39:12;1.63;;;0.87;;
4053;SDS011;2042;47.956;9.222;2022-09-09T15:41:44;2.40;;;0.70;;
4053;SDS011;2042;47.956;9.222;2022-09-09T15:44:11;1.77;;;0.83;;
4053;SDS011;2042;47.956;9.222;2022-09-09T15:51:33;1.03;;;0.73;;
4053;SDS011;2042;47.956;9.222;2022-09-09T15:54:00;1.00;;;0.77;;
4053;SDS011;2042;47.956;9.222;2022-09-09T15:56:26;4.60;;;0.90;;
4053;SDS011;2042;47.956;9.222;2022-09-09T15:58:54;1.73;;;0.87;;
4053;SDS011;2042;47.956;9.222;2022-09-09T16:01:20;0.80;;;0.63;;
4053;SDS011;2042;47.956;9.222;2022-09-09T16:03:46;1.53;;;0.60;;
4053;SDS011;2042;47.956;9.222;2022-09-09T16:06:15;1.53;;;0.60;;
4053;SDS011;2042;47.956;9.222;2022-09-09T16:08:43;1.50;;;0.77;;
4053;SDS011;2042;47.956;9.222;2022-09-09T16:11:11;2.50;;;0.90;;
4053;SDS011;2042;47.956;9.222;2022-09-09T16:13:40;2.17;;;0.80;;
4053;SDS011;2042;47.956;9.222;2022-09-09T16:16:07;3.50;;;0.67;;
4053;SDS011;2042;47.956;9.222;2022-09-09T16:18:39;2.83;;;0.80;;
4053;SDS011;2042;47.956;9.222;2022-09-09T16:21:05;2.60;;;1.20;;
4053;SDS011;2042;47.956;9.222;2022-09-09T16:23:33;1.00;;;0.73;;
4053;SDS011;2042;47.956;9.222;2022-09-09T16:25:59;3.07;;;1.47;;
4053;SDS011;2042;47.956;9.222;2022-09-09T16:28:25;3.20;;;0.60;;
4053;SDS011;2042;47.956;9.222;2022-09-09T16:30:50;2.30;;;0.70;;
4053;SDS011;2042;47.956;9.222;2022-09-09T16:33:16;1.20;;;0.63;;
4053;SDS011;2042;47.956;9.222;2022-09-09T16:35:42;1.03;;;0.60;;
4053;SDS011;2042;47.956;9.222;2022-09-09T16:38:09;2.30;;;0.70;;
4053;SDS011;2042;47.956;9.222;2022-09-09T16:40:35;1.23;;;0.60;;
4053;SDS011;2042;47.956;9.222;2022-09-09T16:43:01;1.00;;;0.60;;
4053;SDS011;2042;47.956;9.222;2022-09-09T16:45:28;1.40;;;0.67;;
4053;SDS011;2042;47.956;9.222;2022-09-09T16:47:54;1.67;;;0.63;;
4053;SDS011;2042;47.956;9.222;2022-09-09T16:50:20;1.33;;;0.70;;
4053;SDS011;2042;47.956;9.222;2022-09-09T16:52:46;0.90;;;0.60;;
4053;SDS011;2042;47.956;9.222;2022-09-09T16:55:12;2.33;;;0.70;;
4053;SDS011;2042;47.956;9.222;2022-09-09T16:57:37;0.90;;;0.60;;
4053;SDS011;2042;47.956;9.222;2022-09-09T17:00:03;2.80;;;1.07;;
4053;SDS011;2042;47.956;9.222;2022-09-09T17:02:31;2.37;;;0.90;;
4053;SDS011;2042;47.956;9.222;2022-09-09T17:04:58;1.23;;;0.70;;
4053;SDS011;2042;47.956;9.222;2022-09-09T17:07:24;2.10;;;1.00;;
4053;SDS011;2042;47.956;9.222;2022-09-09T17:09:50;1.40;;;0.70;;
4053;SDS011;2042;47.956;9.222;2022-09-09T17:12:16;1.10;;;0.90;;
4053;SDS011;2042;47.956;9.222;2022-09-09T17:14:42;1.00;;;0.90;;
4053;SDS011;2042;47.956;9.222;2022-09-09T17:17:08;3.23;;;1.03;;
4053;SDS011;2042;47.956;9.222;2022-09-09T17:19:33;2.67;;;1.00;;
4053;SDS011;2042;47.956;9.222;2022-09-09T17:21:59;3.53;;;1.03;;
4053;SDS011;2042;47.956;9.222;2022-09-09T17:24:28;1.33;;;1.10;;
4053;SDS011;2042;47.956;9.222;2022-09-09T17:26:54;1.80;;;0.70;;
4053;SDS011;2042;47.956;9.222;2022-09-09T17:29:20;1.53;;;0.70;;
4053;SDS011;2042;47.956;9.222;2022-09-09T17:31:46;1.00;;;0.60;;
4053;SDS011;2042;47.956;9.222;2022-09-09T17:34:12;0.90;;;0.70;;
4053;SDS011;2042;47.956;9.222;2022-09-09T17:36:38;2.17;;;0.87;;
4053;SDS011;2042;47.956;9.222;2022-09-09T17:39:04;2.27;;;0.90;;
4053;SDS011;2042;47.956;9.222;2022-09-09T17:41:34;1.50;;;1.00;;
4053;SDS011;2042;47.956;9.222;2022-09-09T17:44:04;3.57;;;0.90;;
4053;SDS011;2042;47.956;9.222;2022-09-09T17:46:33;2.20;;;0.90;;
4053;SDS011;2042;47.956;9.222;2022-09-09T17:49:01;1.30;;;0.70;;
4053;SDS011;2042;47.956;9.222;2022-09-09T17:51:29;2.17;;;0.60;;
4053;SDS011;2042;47.956;9.222;2022-09-09T17:53:57;1.10;;;0.80;;
4053;SDS011;2042;47.956;9.222;2022-09-09T17:56:25;3.60;;;0.70;;
4053;SDS011;2042;47.956;9.222;2022-09-09T17:58:53;1.13;;;0.80;;